Time;durP1;ratioP1;P1;durP2;ratioP2;P2;SDS_P1;SDS_P2;PMS_P1;PMS_P2;Temp;Humidity;BMP_temperature;BMP_pressure;BME280_temperature;BME280_humidity;BME280_pressure;Samples;Min_cycle;Max_cycle;Signal;HPM_P1;HPM_P2
2021/03/08 00:00:41;;;;;;;;;;;;;;;1.17;45.25;96324.09;1805140;79;20515;-64
2021/03/08 00:03:09;;;;;;;;;;;;;;;1.18;44.81;96321.08;1784432;79;20299;-66
2021/03/08 00:05:37;;;;;;;;;;;;;;;1.20;44.98;96329.09;1793500;79;20204;-65
2021/03/08 00:08:05;;;;;;;;;;;;;;;1.22;45.02;96327.75;1787899;79;20271;-66
2021/03/08 00:10:34;;;;;;;;;;;;;;;1.22;45.18;96326.02;1788015;79;20228;-65
2021/03/08 00:13:01;;;;;;;;;;;;;;;1.20;45.02;96320.14;1795303;79;20213;-65
2021/03/08 00:15:29;;;;;;;;;;;;;;;1.22;45.00;96327.75;1792294;79;20512;-67
2021/03/08 00:17:56;;;;;;;;;;;;;;;1.22;44.91;96326.48;1800945;79;20237;-66
2021/03/08 00:20:25;;;;;;;;;;;;;;;1.23;44.58;96324.29;1799153;79;20218;-66
2021/03/08 00:22:53;;;;;;;;;;;;;;;1.21;44.46;96327.36;1800973;79;21338;-65
2021/03/08 00:25:23;;;;;;;;;;;;;;;1.19;44.67;96322.30;1787935;79;20221;-64
2021/03/08 00:27:51;;;;;;;;;;;;;;;1.18;44.62;96323.17;1792598;79;20277;-65
2021/03/08 00:30:19;;;;;;;;;;;;;;;1.16;44.89;96330.53;1799084;79;20248;-65
2021/03/08 00:32:47;;;;;;;;;;;;;;;1.14;44.73;96325.93;1784952;79;20218;-64
2021/03/08 00:35:15;;;;;;;;;;;;;;;1.13;44.74;96321.70;1795335;79;21271;-66
2021/03/08 00:37:42;;;;;;;;;;;;;;;1.14;44.71;96324.20;1799587;79;20224;-65
2021/03/08 00:40:16;;;;;;;;;;;;;;;1.15;44.73;96325.02;1798496;79;20222;-65
2021/03/08 00:42:43;;;;;;;;;;;;;;;1.15;44.61;96321.19;1801239;79;20245;-64
2021/03/08 00:45:13;;;;;;;;;;;;;;;1.17;44.45;96319.40;1786795;79;20232;-65
2021/03/08 00:47:40;;;;;;;;;;;;;;;1.23;44.28;96319.18;1789471;79;21201;-64
2021/03/08 00:50:12;;;;;;;;;;;;;;;1.23;44.03;96315.34;1790796;79;20265;-64
2021/03/08 00:52:40;;;;;;;;;;;;;;;1.26;44.17;96316.51;1787616;79;20224;-64
2021/03/08 00:55:09;;;;;;;;;;;;;;;1.27;43.90;96322.02;1795686;78;20265;-65
2021/03/08 00:57:36;;;;;;;;;;;;;;;1.26;44.06;96317.33;1795766;79;20210;-65
2021/03/08 01:00:05;;;;;;;;;;;;;;;1.29;44.03;96317.22;1799819;79;21210;-65
2021/03/08 01:02:34;;;;;;;;;;;;;;;1.31;43.94;96315.88;1792814;79;20249;-65
2021/03/08 01:05:04;;;;;;;;;;;;;;;1.33;44.14;96314.09;1806246;79;20218;-65
2021/03/08 01:07:31;;;;;;;;;;;;;;;1.34;44.25;96305.55;1796633;79;20222;-66
2021/03/08 01:09:59;;;;;;;;;;;;;;;1.33;44.17;96310.72;1793020;79;20504;-65
2021/03/08 01:12:27;;;;;;;;;;;;;;;1.34;44.07;96308.10;1785336;79;21200;-65
2021/03/08 01:14:55;;;;;;;;;;;;;;;1.31;44.06;96301.83;1786246;79;20220;-63
2021/03/08 01:17:22;;;;;;;;;;;;;;;1.25;44.21;96302.05;1785088;79;20476;-63
2021/03/08 01:19:50;;;;;;;;;;;;;;;1.20;44.34;96288.20;1808810;78;20215;-63
2021/03/08 01:22:17;;;;;;;;;;;;;;;1.16;44.38;96294.75;1807823;79;20229;-62
2021/03/08 01:24:44;;;;;;;;;;;;;;;1.12;44.32;96295.32;1809401;79;22218;-62
2021/03/08 01:27:12;;;;;;;;;;;;;;;1.03;44.46;96287.53;1796401;79;20202;-62
2021/03/08 01:29:40;;;;;;;;;;;;;;;1.02;44.43;96285.89;1807578;78;20228;-62
2021/03/08 01:32:07;;;;;;;;;;;;;;;1.04;44.54;96288.39;1784804;79;21203;-61
2021/03/08 01:34:36;;;;;;;;;;;;;;;1.03;44.55;96290.55;1816423;79;20226;-65
2021/03/08 01:37:04;;;;;;;;;;;;;;;1.03;44.71;96281.15;1812667;79;21268;-65
2021/03/08 01:39:31;;;;;;;;;;;;;;;1.01;44.84;96288.05;1784424;79;20212;-65
2021/03/08 01:41:59;;;;;;;;;;;;;;;1.01;44.74;96284.21;1801887;79;20208;-64
2021/03/08 01:44:26;;;;;;;;;;;;;;;1.02;44.74;96281.20;1786014;79;20492;-63
2021/03/08 01:46:54;;;;;;;;;;;;;;;0.93;44.98;96275.18;1784969;79;20236;-62
2021/03/08 01:49:21;;;;;;;;;;;;;;;0.87;45.31;96274.52;1799836;79;21373;-63
2021/03/08 01:51:49;;;;;;;;;;;;;;;0.87;45.51;96274.94;1815640;79;21022;-62
2021/03/08 01:54:16;;;;;;;;;;;;;;;0.88;45.73;96272.79;1782334;79;20233;-63
2021/03/08 01:56:43;;;;;;;;;;;;;;;0.91;45.71;96273.95;1799450;79;20209;-64
2021/03/08 01:59:10;;;;;;;;;;;;;;;0.89;45.77;96268.08;1813995;79;20245;-63
2021/03/08 02:01:39;;;;;;;;;;;;;;;0.88;45.79;96271.05;1814380;79;21241;-63
2021/03/08 02:04:06;;;;;;;;;;;;;;;0.89;45.91;96266.34;1786236;79;20500;-64
2021/03/08 02:06:34;;;;;;;;;;;;;;;0.87;45.92;96268.14;1786753;79;20259;-63
2021/03/08 02:09:03;;;;;;;;;;;;;;;0.84;45.74;96266.97;1803291;79;20234;-63
2021/03/08 02:11:33;;;;;;;;;;;;;;;0.77;45.80;96262.95;1812356;79;20234;-64
2021/03/08 02:14:27;;;;;;;;;;;;;;;0.74;45.94;96259.27;1786764;79;21842;-64
2021/03/08 02:17:03;;;;;;;;;;;;;;;0.70;45.88;96258.97;1769164;80;20480;-63
2021/03/08 02:19:56;;;;;;;;;;;;;;;0.66;46.08;96263.37;1816038;79;20243;-66
2021/03/08 02:22:47;;;;;;;;;;;;;;;0.67;46.32;96262.91;1816452;79;20213;-65
2021/03/08 02:25:25;;;;;;;;;;;;;;;0.74;46.36;96259.27;1782075;80;20230;-65
2021/03/08 02:28:12;;;;;;;;;;;;;;;0.77;46.15;96261.68;1782809;79;21191;-63
2021/03/08 02:30:44;;;;;;;;;;;;;;;0.80;45.81;96264.13;1790495;79;20257;-64
2021/03/08 02:33:19;;;;;;;;;;;;;;;0.76;45.51;96267.70;1790077;79;20237;-64
2021/03/08 02:35:46;;;;;;;;;;;;;;;0.69;45.52;96263.26;1813252;78;20993;-65
2021/03/08 02:38:18;;;;;;;;;;;;;;;0.59;45.41;96263.63;1802882;79;20232;-63
2021/03/08 02:41:03;;;;;;;;;;;;;;;0.53;45.61;96264.70;1791321;79;22185;-65
2021/03/08 02:43:33;;;;;;;;;;;;;;;0.45;45.63;96266.24;1784725;80;20212;-66
2021/03/08 02:46:04;;;;;;;;;;;;;;;0.43;45.67;96269.30;1788507;79;20283;-64
2021/03/08 02:48:32;;;;;;;;;;;;;;;0.44;45.66;96268.84;1800562;79;20224;-64
2021/03/08 02:51:00;;;;;;;;;;;;;;;0.48;45.83;96266.14;1784955;79;20216;-64
2021/03/08 02:53:28;;;;;;;;;;;;;;;0.53;45.42;96268.08;1799233;79;22105;-63
2021/03/08 02:55:57;;;;;;;;;;;;;;;0.54;45.27;96266.34;1816509;79;20218;-63
2021/03/08 02:58:25;;;;;;;;;;;;;;;0.48;45.60;96268.69;1815880;79;20246;-64
2021/03/08 03:00:54;;;;;;;;;;;;;;;0.39;45.63;96264.35;1799410;79;20224;-64
2021/03/08 03:03:22;;;;;;;;;;;;;;;0.34;45.87;96264.05;1784716;80;20216;-65
2021/03/08 03:05:50;;;;;;;;;;;;;;;0.31;46.19;96265.47;1786849;79;21205;-66
2021/03/08 03:08:17;;;;;;;;;;;;;;;0.29;46.40;96265.94;1785931;79;20224;-66
2021/03/08 03:10:45;;;;;;;;;;;;;;;0.30;46.41;96266.34;1784875;79;20244;-66
2021/03/08 03:13:12;;;;;;;;;;;;;;;0.32;46.53;96265.84;1807765;79;20211;-67
2021/03/08 03:15:39;;;;;;;;;;;;;;;0.35;46.61;96259.80;1815869;79;20226;-67
2021/03/08 03:18:07;;;;;;;;;;;;;;;0.40;46.63;96263.48;1807013;79;20976;-65
2021/03/08 03:20:36;;;;;;;;;;;;;;;0.45;46.62;96265.42;1784693;79;20491;-65
2021/03/08 03:23:03;;;;;;;;;;;;;;;0.53;46.56;96267.25;1788594;79;20500;-65
2021/03/08 03:25:31;;;;;;;;;;;;;;;0.55;46.44;96263.74;1790640;79;20216;-64
2021/03/08 03:27:58;;;;;;;;;;;;;;;0.60;46.48;96267.86;1785484;79;20271;-65
2021/03/08 03:30:28;;;;;;;;;;;;;;;0.62;46.45;96265.63;1806006;79;21345;-64
2021/03/08 03:32:56;;;;;;;;;;;;;;;0.65;46.29;96268.53;1816503;79;20238;-64
2021/03/08 03:35:25;;;;;;;;;;;;;;;0.69;46.29;96269.64;1816564;79;21082;-66
2021/03/08 03:37:53;;;;;;;;;;;;;;;0.72;46.17;96263.58;1796092;79;20332;-65
2021/03/08 03:40:20;;;;;;;;;;;;;;;0.73;46.23;96263.97;1801178;78;20220;-64
2021/03/08 03:42:51;;;;;;;;;;;;;;;0.73;46.17;96275.02;1784786;79;21169;-64
2021/03/08 03:45:20;;;;;;;;;;;;;;;0.75;46.21;96270.30;1784936;79;21849;-64
2021/03/08 03:47:47;;;;;;;;;;;;;;;0.79;46.31;96270.14;1800195;79;20222;-65
2021/03/08 03:50:17;;;;;;;;;;;;;;;0.81;45.96;96278.57;1814655;79;20222;-65
2021/03/08 03:52:44;;;;;;;;;;;;;;;0.80;46.03;96273.06;1811862;78;20221;-65
2021/03/08 03:55:16;;;;;;;;;;;;;;;0.83;45.87;96280.61;1808053;79;20218;-65
2021/03/08 03:58:08;;;;;;;;;;;;;;;0.87;45.80;96277.08;1807332;78;20234;-66
2021/03/08 04:00:45;;;;;;;;;;;;;;;0.91;45.34;96273.95;1793031;78;20220;-65
2021/03/08 04:03:12;;;;;;;;;;;;;;;0.97;45.31;96277.56;1784286;79;20483;-63
2021/03/08 04:05:40;;;;;;;;;;;;;;;0.99;45.21;96271.95;1803384;79;20482;-65
2021/03/08 04:08:09;;;;;;;;;;;;;;;0.98;45.13;96274.56;1785931;79;21361;-64
2021/03/08 04:10:36;;;;;;;;;;;;;;;0.95;45.10;96276.77;1809718;79;20218;-64
2021/03/08 04:13:05;;;;;;;;;;;;;;;0.96;45.09;96284.01;1720269;83;20229;-64
2021/03/08 04:15:32;;;;;;;;;;;;;;;0.94;44.91;96280.66;1736052;82;20221;-64
2021/03/08 04:18:00;;;;;;;;;;;;;;;0.90;44.84;96284.62;1754579;81;20218;-64
2021/03/08 04:20:29;;;;;;;;;;;;;;;0.88;45.01;96280.00;1752038;81;21832;-63
2021/03/08 04:22:58;;;;;;;;;;;;;;;0.85;45.11;96281.39;1732587;81;20217;-62
2021/03/08 04:25:26;;;;;;;;;;;;;;;0.84;45.10;96275.05;1730810;83;20515;-65
2021/03/08 04:27:53;;;;;;;;;;;;;;;0.73;45.55;96258.86;1731279;81;20217;-65
2021/03/08 04:30:21;;;;;;;;;;;;;;;0.61;45.87;96264.41;1712186;82;20241;-61
2021/03/08 04:32:51;;;;;;;;;;;;;;;0.50;46.30;96264.81;1744558;81;21260;-62
2021/03/08 04:35:18;;;;;;;;;;;;;;;0.48;46.41;96267.87;1713388;83;20321;-67
2021/03/08 04:37:45;;;;;;;;;;;;;;;0.47;46.55;96268.29;1740122;81;20498;-67
2021/03/08 04:40:13;;;;;;;;;;;;;;;0.55;46.63;96273.13;1758923;81;20229;-63
2021/03/08 04:42:42;;;;;;;;;;;;;;;0.70;46.75;96276.84;1752596;81;20241;-66
2021/03/08 04:45:13;;;;;;;;;;;;;;;0.80;46.21;96272.24;1756661;81;20731;-66
2021/03/08 04:47:41;;;;;;;;;;;;;;;0.84;46.27;96270.80;1744739;81;20949;-66
2021/03/08 04:50:10;;;;;;;;;;;;;;;0.80;46.28;96267.95;1734659;81;20259;-65
2021/03/08 04:52:39;;;;;;;;;;;;;;;0.73;46.43;96263.97;1760363;81;22024;-61
2021/03/08 04:55:07;;;;;;;;;;;;;;;0.71;46.67;96263.20;1747988;81;20883;-61
2021/03/08 04:57:35;;;;;;;;;;;;;;;0.72;46.76;96264.43;1750336;81;21251;-61
2021/03/08 05:00:06;;;;;;;;;;;;;;;0.69;46.86;96262.41;1739640;81;20221;-62
2021/03/08 05:02:36;;;;;;;;;;;;;;;0.63;47.24;96261.38;1758260;81;20527;-62
2021/03/08 05:05:05;;;;;;;;;;;;;;;0.64;47.50;96260.47;1750591;81;20236;-64
2021/03/08 05:07:35;;;;;;;;;;;;;;;0.71;47.75;96261.93;1739772;81;20490;-60
2021/03/08 05:10:03;;;;;;;;;;;;;;;0.87;47.47;96269.84;1756840;81;22430;-61
2021/03/08 05:12:30;;;;;;;;;;;;;;;1.03;47.30;96269.65;1753176;81;20211;-63
2021/03/08 05:14:58;;;;;;;;;;;;;;;1.24;46.78;96264.17;1758265;81;20238;-63
2021/03/08 05:17:25;;;;;;;;;;;;;;;1.40;46.19;96262.31;1744429;81;20229;-62
2021/03/08 05:19:52;;;;;;;;;;;;;;;1.49;45.98;96259.37;1736582;81;20216;-64
2021/03/08 05:22:20;;;;;;;;;;;;;;;1.55;45.83;96250.19;1752778;81;20973;-59
2021/03/08 05:24:50;;;;;;;;;;;;;;;1.59;45.76;96254.72;1790702;79;20256;-60
2021/03/08 05:27:18;;;;;;;;;;;;;;;1.59;45.59;96252.17;1797226;79;20217;-59
2021/03/08 05:29:46;;;;;;;;;;;;;;;1.57;45.64;96249.67;1815775;79;20887;-65
2021/03/08 05:32:16;;;;;;;;;;;;;;;1.54;45.62;96259.20;1814391;79;20211;-63
2021/03/08 05:34:45;;;;;;;;;;;;;;;1.48;45.64;96257.73;1796408;79;21196;-62
2021/03/08 05:37:13;;;;;;;;;;;;;;;1.45;46.00;96259.13;1802463;79;20620;-62
2021/03/08 05:39:43;;;;;;;;;;;;;;;1.47;45.81;96254.31;1784847;79;20319;-63
2021/03/08 05:42:12;;;;;;;;;;;;;;;1.48;45.61;96262.84;1752073;81;20952;-62
2021/03/08 05:45:03;;;;;;;;;;;;;;;1.39;45.66;96267.03;1787197;79;20291;-62
2021/03/08 05:48:08;;;;;;;;;;;;;;;1.32;45.91;96270.27;1804891;79;20482;-62
2021/03/08 05:51:11;;;;;;;;;;;;;;;1.39;45.68;96275.52;1808041;79;20238;-70
2021/03/08 05:53:48;;;;;;;;;;;;;;;1.57;45.95;96280.36;1808672;79;20257;-64
2021/03/08 05:56:20;;;;;;;;;;;;;;;1.86;45.19;96268.13;1805114;79;22208;-62
2021/03/08 05:59:07;;;;;;;;;;;;;;;2.19;44.34;96274.84;1816721;79;20222;-62
2021/03/08 06:01:47;;;;;;;;;;;;;;;2.52;43.83;96284.55;1796860;79;21207;-62
2021/03/08 06:04:36;;;;;;;;;;;;;;;2.93;43.15;96284.45;1798522;79;20223;-62
2021/03/08 06:07:33;;;;;;;;;;;;;;;3.17;42.48;96284.22;1809860;79;20238;-62
2021/03/08 06:10:08;;;;;;;;;;;;;;;3.34;41.97;96281.33;1815870;79;20206;-63
2021/03/08 06:12:36;;;;;;;;;;;;;;;3.38;41.45;96275.16;1810249;79;20212;-63
2021/03/08 06:15:10;;;;;;;;;;;;;;;3.56;41.50;96281.98;1813936;79;22116;-63
2021/03/08 06:17:38;;;;;;;;;;;;;;;3.86;40.60;96276.28;1812989;79;20215;-63
2021/03/08 06:20:08;;;;;;;;;;;;;;;4.14;40.39;96283.45;1785949;79;20236;-62
2021/03/08 06:22:36;;;;;;;;;;;;;;;4.60;39.84;96291.42;1816829;78;20233;-62
2021/03/08 06:25:05;;;;;;;;;;;;;;;5.25;38.87;96291.87;1789203;79;20327;-62
2021/03/08 06:27:32;;;;;;;;;;;;;;;5.86;37.76;96290.22;1784747;79;21462;-63
2021/03/08 06:30:00;;;;;;;;;;;;;;;6.60;36.79;96285.98;1784681;80;20212;-64
2021/03/08 06:32:27;;;;;;;;;;;;;;;7.58;35.47;96273.13;1784673;79;20318;-64
2021/03/08 06:34:55;;;;;;;;;;;;;;;8.49;33.21;96265.96;1792273;79;22046;-61
2021/03/08 06:37:25;;;;;;;;;;;;;;;8.85;32.32;96272.16;1787062;79;20212;-62
2021/03/08 06:39:52;;;;;;;;;;;;;;;9.10;32.00;96282.11;1792281;79;22305;-63
2021/03/08 06:42:21;;;;;;;;;;;;;;;9.54;31.41;96280.73;1796131;78;20228;-63
2021/03/08 06:44:49;;;;;;;;;;;;;;;10.06;30.22;96265.27;1786571;79;20260;-63
2021/03/08 06:47:17;;;;;;;;;;;;;;;10.27;29.52;96264.64;1816444;79;20507;-63
2021/03/08 06:49:45;;;;;;;;;;;;;;;10.81;29.54;96262.73;1816573;79;20241;-63
2021/03/08 06:52:14;;;;;;;;;;;;;;;11.74;28.18;96267.19;1816556;79;21251;-63
2021/03/08 06:54:46;;;;;;;;;;;;;;;12.33;27.28;96261.55;1808577;78;20232;-63
2021/03/08 06:57:28;;;;;;;;;;;;;;;12.96;25.71;96262.39;1794477;79;20507;-62
2021/03/08 06:59:58;;;;;;;;;;;;;;;13.12;25.37;96264.52;1810969;79;20219;-64
2021/03/08 07:02:40;;;;;;;;;;;;;;;12.80;26.08;96265.00;1816531;79;20226;-62
2021/03/08 07:05:12;;;;;;;;;;;;;;;13.18;24.67;96265.30;1787763;79;22099;-63
2021/03/08 07:07:58;;;;;;;;;;;;;;;13.19;24.83;96263.02;1784482;80;20504;-63
2021/03/08 07:10:36;;;;;;;;;;;;;;;13.38;24.44;96263.10;1794746;79;20212;-63
2021/03/08 07:13:05;;;;;;;;;;;;;;;13.51;24.44;96262.86;1812959;79;20486;-63
2021/03/08 07:15:32;;;;;;;;;;;;;;;13.83;24.07;96266.19;1802449;79;21701;-64
2021/03/08 07:17:59;;;;;;;;;;;;;;;13.82;23.72;96263.26;1758838;80;21205;-62
2021/03/08 07:20:27;;;;;;;;;;;;;;;13.81;23.99;96259.81;1786511;79;20216;-64
2021/03/08 07:22:55;;;;;;;;;;;;;;;13.88;23.10;96253.56;1790169;79;20228;-65
2021/03/08 07:25:32;;;;;;;;;;;;;;;13.39;23.77;96253.03;1787019;79;20221;-61
2021/03/08 07:28:02;;;;;;;;;;;;;;;13.07;24.43;96256.63;1796620;79;20234;-62
2021/03/08 07:30:32;;;;;;;;;;;;;;;13.26;24.64;96255.03;1816514;78;21349;-61
2021/03/08 07:33:05;;;;;;;;;;;;;;;13.87;23.64;96253.23;1803390;79;20223;-62
2021/03/08 07:35:42;;;;;;;;;;;;;;;14.08;23.41;96251.31;1784459;80;20220;-62
2021/03/08 07:38:14;;;;;;;;;;;;;;;14.03;23.18;96254.81;1789257;79;20277;-61
2021/03/08 07:40:43;;;;;;;;;;;;;;;13.17;23.75;96259.73;1806927;79;20212;-61
2021/03/08 07:43:21;;;;;;;;;;;;;;;12.37;25.13;96259.50;1785204;79;22202;-60
2021/03/08 07:45:48;;;;;;;;;;;;;;;12.15;25.25;96259.13;1744144;82;20283;-61
2021/03/08 07:48:16;;;;;;;;;;;;;;;11.74;25.49;96255.05;1726171;83;20225;-61
2021/03/08 07:50:46;;;;;;;;;;;;;;;11.09;26.27;96251.52;1745334;81;20503;-62
2021/03/08 07:53:30;;;;;;;;;;;;;;;10.43;27.50;96253.51;1738107;81;20218;-61
2021/03/08 07:56:00;;;;;;;;;;;;;;;10.97;27.38;96253.76;1733928;81;21282;-63
2021/03/08 07:58:29;;;;;;;;;;;;;;;12.46;25.63;96249.61;1732767;81;20355;-61
2021/03/08 08:00:57;;;;;;;;;;;;;;;13.44;24.53;96251.34;1743561;81;20225;-62
2021/03/08 08:03:25;;;;;;;;;;;;;;;14.43;23.51;96245.16;1748589;81;20219;-59
2021/03/08 08:05:55;;;;;;;;;;;;;;;15.54;22.82;96251.33;1726630;81;20232;-62
2021/03/08 08:08:24;;;;;;;;;;;;;;;16.76;21.76;96255.12;1749880;81;22062;-61
2021/03/08 08:10:52;;;;;;;;;;;;;;;17.62;20.72;96255.98;1733194;81;20218;-61
2021/03/08 08:13:26;;;;;;;;;;;;;;;18.05;20.12;96249.36;1738270;81;20250;-62
2021/03/08 08:15:53;;;;;;;;;;;;;;;18.08;19.95;96255.60;1726619;81;20229;-61
2021/03/08 08:18:21;;;;;;;;;;;;;;;17.80;20.14;96247.99;1750457;81;20219;-62
2021/03/08 08:20:51;;;;;;;;;;;;;;;17.18;20.47;96259.60;1726070;83;20543;-61
2021/03/08 08:23:24;;;;;;;;;;;;;;;16.26;21.16;96254.45;1728123;81;20270;-62
2021/03/08 08:25:52;;;;;;;;;;;;;;;15.23;22.11;96261.24;1728075;81;20241;-61
2021/03/08 08:28:21;;;;;;;;;;;;;;;14.71;22.91;96259.94;1727371;81;20225;-61
2021/03/08 08:30:56;;;;;;;;;;;;;;;14.82;23.68;96254.20;1726037;81;20276;-61
2021/03/08 08:33:27;;;;;;;;;;;;;;;14.59;23.74;96260.21;1747653;81;21354;-61
2021/03/08 08:36:10;;;;;;;;;;;;;;;13.87;24.49;96260.58;1731049;81;37468;-61
2021/03/08 08:38:41;;;;;;;;;;;;;;;13.56;25.01;96267.67;1730489;81;20250;-61
2021/03/08 08:41:25;;;;;;;;;;;;;;;13.38;25.55;96267.02;1749804;81;20228;-66
2021/03/08 08:44:14;;;;;;;;;;;;;;;13.02;26.41;96274.41;1749546;81;20336;-63
2021/03/08 08:46:45;;;;;;;;;;;;;;;12.50;27.07;96265.82;1751454;81;23573;-61
2021/03/08 08:49:14;;;;;;;;;;;;;;;12.60;27.35;96269.75;1757673;81;20664;-61
2021/03/08 08:51:50;;;;;;;;;;;;;;;13.23;26.72;96273.53;1733972;81;20245;-60
2021/03/08 08:54:32;;;;;;;;;;;;;;;13.52;26.37;96268.89;1735419;81;20221;-62
2021/03/08 08:57:12;;;;;;;;;;;;;;;13.77;26.19;96270.18;1722537;82;20225;-61
2021/03/08 08:59:48;;;;;;;;;;;;;;;13.66;25.90;96271.11;1734089;82;20997;-61
2021/03/08 09:02:27;;;;;;;;;;;;;;;13.02;26.25;96271.80;1724526;82;20229;-61
2021/03/08 09:04:52;;;;;;;;;;;;;;;12.42;27.06;96272.14;1816596;79;20237;-60
2021/03/08 09:07:29;;;;;;;;;;;;;;;12.21;27.36;96268.23;1794130;79;20214;-61
2021/03/08 09:09:59;;;;;;;;;;;;;;;12.17;27.52;96268.96;1816479;79;21639;-60
2021/03/08 09:12:32;;;;;;;;;;;;;;;12.08;27.52;96274.42;1807733;78;21446;-60
2021/03/08 09:15:01;;;;;;;;;;;;;;;11.89;27.80;96270.33;1784329;79;20224;-60
2021/03/08 09:17:43;;;;;;;;;;;;;;;12.15;28.03;96274.28;1784157;80;20227;-60
2021/03/08 09:20:18;;;;;;;;;;;;;;;12.88;27.07;96272.98;1784619;80;20220;-60
2021/03/08 09:22:50;;;;;;;;;;;;;;;13.91;26.01;96273.67;1795720;79;20222;-60
2021/03/08 09:25:25;;;;;;;;;;;;;;;14.77;25.04;96268.17;1784625;80;21136;-60
2021/03/08 09:28:00;;;;;;;;;;;;;;;14.87;24.53;96277.63;1784560;80;20232;-60
2021/03/08 09:30:30;;;;;;;;;;;;;;;14.56;24.70;96274.87;1784646;79;20221;-60
2021/03/08 09:33:02;;;;;;;;;;;;;;;13.94;25.08;96281.71;1786441;79;20242;-60
2021/03/08 09:35:38;;;;;;;;;;;;;;;12.96;25.99;96280.16;1800145;79;20229;-60
2021/03/08 09:38:08;;;;;;;;;;;;;;;12.15;26.91;96283.84;1810202;79;21181;-60
2021/03/08 09:40:37;;;;;;;;;;;;;;;11.34;28.06;96291.16;1783931;80;20487;-60
2021/03/08 09:43:20;;;;;;;;;;;;;;;10.67;29.33;96291.50;1784495;79;20216;-61
2021/03/08 09:45:54;;;;;;;;;;;;;;;10.08;30.44;96285.45;1784614;80;20266;-60
2021/03/08 09:48:22;;;;;;;;;;;;;;;9.52;31.51;96292.50;1793331;79;20242;-60
2021/03/08 09:50:50;;;;;;;;;;;;;;;9.09;32.42;96303.26;1816600;79;21042;-60
2021/03/08 09:53:20;;;;;;;;;;;;;;;8.89;33.11;96294.76;1797269;78;20256;-60
2021/03/08 09:55:47;;;;;;;;;;;;;;;8.91;33.58;96295.00;1784899;80;20489;-60
2021/03/08 09:58:18;;;;;;;;;;;;;;;8.95;33.65;96295.64;1784747;80;20484;-60
2021/03/08 10:00:48;;;;;;;;;;;;;;;8.93;34.11;96298.77;1784804;80;20213;-60
2021/03/08 10:03:15;;;;;;;;;;;;;;;8.89;34.22;96301.23;1786875;79;21146;-60
2021/03/08 10:05:46;;;;;;;;;;;;;;;8.92;34.54;96297.95;1784769;80;20237;-59
2021/03/08 10:08:17;;;;;;;;;;;;;;;8.81;34.95;96303.03;1789485;79;20273;-60
2021/03/08 10:10:50;;;;;;;;;;;;;;;8.54;35.58;96305.74;1816847;79;20234;-60
2021/03/08 10:13:19;;;;;;;;;;;;;;;8.26;36.30;96309.64;1816907;79;20269;-60
2021/03/08 10:15:56;;;;;;;;;;;;;;;8.01;36.77;96311.72;1816866;79;22777;-60
2021/03/08 10:18:32;;;;;;;;;;;;;;;7.82;37.50;96320.28;1815811;79;20214;-61
2021/03/08 10:21:01;;;;;;;;;;;;;;;7.75;37.87;96327.59;1816890;79;20301;-60
2021/03/08 10:23:31;;;;;;;;;;;;;;;7.70;38.26;96327.06;1808302;79;20283;-60
2021/03/08 10:26:10;;;;;;;;;;;;;;;7.70;38.81;96326.59;1800492;79;20218;-60
2021/03/08 10:28:40;;;;;;;;;;;;;;;7.67;38.91;96326.77;1817033;79;21210;-60
2021/03/08 10:31:17;;;;;;;;;;;;;;;7.68;39.15;96326.30;1816772;79;20214;-60
2021/03/08 10:34:03;;;;;;;;;;;;;;;7.69;39.52;96331.38;1816935;79;20218;-60
2021/03/08 10:36:36;;;;;;;;;;;;;;;7.64;39.74;96328.26;1813142;79;20218;-61
2021/03/08 10:39:06;;;;;;;;;;;;;;;7.46;40.14;96336.69;1785066;79;20489;-61
2021/03/08 10:41:34;;;;;;;;;;;;;;;7.20;40.61;96338.29;1784576;80;22284;-61
2021/03/08 10:44:02;;;;;;;;;;;;;;;6.98;41.21;96331.85;1760802;80;20722;-61
2021/03/08 10:46:34;;;;;;;;;;;;;;;6.79;41.71;96337.30;1804103;79;20221;-60
2021/03/08 10:49:04;;;;;;;;;;;;;;;6.62;42.02;96338.28;1816654;79;20758;-60
2021/03/08 10:51:32;;;;;;;;;;;;;;;6.48;42.50;96338.28;1816589;79;20221;-60
2021/03/08 10:54:01;;;;;;;;;;;;;;;6.34;42.77;96341.63;1801657;79;21200;-61
2021/03/08 10:56:31;;;;;;;;;;;;;;;6.24;43.18;96346.48;1784248;79;20228;-61
2021/03/08 10:58:58;;;;;;;;;;;;;;;6.14;43.23;96346.64;1784355;80;20236;-61
2021/03/08 11:01:27;;;;;;;;;;;;;;;5.99;44.21;96347.05;1784406;80;20213;-61
2021/03/08 11:03:55;;;;;;;;;;;;;;;5.81;45.89;96349.34;1796578;79;20493;-61
2021/03/08 11:06:23;;;;;;;;;;;;;;;5.62;46.74;96353.37;1816580;78;21267;-61
2021/03/08 11:09:01;;;;;;;;;;;;;;;5.48;47.56;96354.12;1816224;78;20247;-61
2021/03/08 11:11:30;;;;;;;;;;;;;;;5.44;47.91;96352.15;1816528;78;20239;-61
2021/03/08 11:14:03;;;;;;;;;;;;;;;5.31;48.17;96354.58;1804104;79;20209;-61
2021/03/08 11:16:31;;;;;;;;;;;;;;;5.28;48.35;96354.73;1784482;80;20244;-61
2021/03/08 11:19:20;;;;;;;;;;;;;;;5.32;48.67;96352.36;1784432;80;21348;-61
2021/03/08 11:22:04;;;;;;;;;;;;;;;5.37;48.64;96353.41;1784367;80;20240;-60
2021/03/08 11:24:31;;;;;;;;;;;;;;;5.28;48.67;96351.31;1806240;79;20222;-60
2021/03/08 11:27:21;;;;;;;;;;;;;;;5.21;49.98;96365.42;1806540;78;20567;-60
2021/03/08 11:30:03;;;;;;;;;;;;;;;5.00;51.28;96358.37;1782842;80;20232;-60
2021/03/08 11:32:32;;;;;;;;;;;;;;;4.69;52.51;96367.20;1801052;79;21200;-61
2021/03/08 11:35:01;;;;;;;;;;;;;;;4.46;53.24;96359.38;1813723;79;20213;-61
2021/03/08 11:37:30;;;;;;;;;;;;;;;4.23;54.23;96362.61;1816259;78;20556;-61
2021/03/08 11:39:58;;;;;;;;;;;;;;;3.96;54.76;96363.48;1788871;79;20211;-61
2021/03/08 11:42:26;;;;;;;;;;;;;;;3.69;55.52;96373.33;1784372;80;20497;-61
2021/03/08 11:44:54;;;;;;;;;;;;;;;3.60;56.38;96368.19;1784386;80;21046;-61
2021/03/08 11:47:21;;;;;;;;;;;;;;;3.53;56.40;96367.24;1784396;79;20224;-61
2021/03/08 11:49:48;;;;;;;;;;;;;;;3.48;56.40;96370.02;1809302;79;20238;-61
2021/03/08 11:52:15;;;;;;;;;;;;;;;3.44;56.34;96369.79;1816466;78;20214;-61
2021/03/08 11:54:43;;;;;;;;;;;;;;;3.37;56.22;96371.80;1791281;79;20492;-61
2021/03/08 11:57:10;;;;;;;;;;;;;;;3.37;56.35;96375.65;1801245;79;21201;-59
2021/03/08 11:59:37;;;;;;;;;;;;;;;3.29;56.05;96373.42;1788348;79;20220;-61
2021/03/08 12:02:05;;;;;;;;;;;;;;;3.17;56.33;96372.67;1816459;78;20206;-62
2021/03/08 12:04:32;;;;;;;;;;;;;;;3.06;56.41;96377.01;1816485;79;20214;-61
2021/03/08 12:07:00;;;;;;;;;;;;;;;3.00;56.52;96382.39;1816491;79;21570;-61
2021/03/08 12:09:28;;;;;;;;;;;;;;;3.02;56.69;96387.45;1813668;78;21188;-61
2021/03/08 12:11:55;;;;;;;;;;;;;;;3.02;56.74;96387.45;1816403;79;20222;-60
2021/03/08 12:14:22;;;;;;;;;;;;;;;3.05;57.02;96389.89;1816520;79;20234;-60
2021/03/08 12:16:50;;;;;;;;;;;;;;;3.12;56.79;96389.56;1816486;79;20289;-61
2021/03/08 12:19:17;;;;;;;;;;;;;;;3.17;56.51;96396.20;1798337;79;20223;-61
2021/03/08 12:21:45;;;;;;;;;;;;;;;3.19;56.37;96403.37;1784407;80;21981;-61
2021/03/08 12:24:13;;;;;;;;;;;;;;;3.16;56.41;96400.94;1784678;79;20652;-60
2021/03/08 12:26:40;;;;;;;;;;;;;;;3.09;56.50;96405.08;1784384;80;20240;-60
2021/03/08 12:29:08;;;;;;;;;;;;;;;3.08;56.50;96407.25;1799954;79;20744;-61
2021/03/08 12:31:35;;;;;;;;;;;;;;;3.01;56.79;96410.13;1816486;78;20218;-61
2021/03/08 12:34:04;;;;;;;;;;;;;;;2.91;57.15;96417.38;1785398;79;21379;-60
2021/03/08 12:36:31;;;;;;;;;;;;;;;2.87;57.60;96412.84;1784285;80;20212;-61
2021/03/08 12:38:58;;;;;;;;;;;;;;;2.88;57.92;96418.82;1798477;79;20220;-60
2021/03/08 12:41:25;;;;;;;;;;;;;;;2.87;58.00;96422.27;1816259;79;20233;-61
2021/03/08 12:43:52;;;;;;;;;;;;;;;2.86;58.02;96417.60;1816571;78;20249;-61
2021/03/08 12:46:21;;;;;;;;;;;;;;;2.87;58.00;96421.81;1816757;79;21024;-61
2021/03/08 12:48:49;;;;;;;;;;;;;;;2.90;58.20;96425.53;1815793;79;20878;-61
2021/03/08 12:51:17;;;;;;;;;;;;;;;2.93;58.16;96433.55;1816751;79;20210;-60
2021/03/08 12:53:45;;;;;;;;;;;;;;;2.91;58.32;96426.35;1816533;79;20214;-62
2021/03/08 12:56:12;;;;;;;;;;;;;;;2.93;58.49;96436.94;1816784;79;20230;-61
2021/03/08 12:58:39;;;;;;;;;;;;;;;2.96;58.34;96434.70;1807200;79;21041;-62
2021/03/08 13:01:06;;;;;;;;;;;;;;;3.01;58.08;96443.03;1784749;79;20224;-61
2021/03/08 13:03:35;;;;;;;;;;;;;;;3.04;57.54;96444.61;1784560;79;20220;-61
2021/03/08 13:06:02;;;;;;;;;;;;;;;3.03;57.04;96459.16;1784594;80;20233;-62
2021/03/08 13:08:30;;;;;;;;;;;;;;;2.95;56.54;96453.08;1792415;79;20235;-62
2021/03/08 13:10:57;;;;;;;;;;;;;;;2.85;56.56;96456.93;1816746;79;21244;-63
2021/03/08 13:13:24;;;;;;;;;;;;;;;2.68;56.28;96465.75;1816700;79;20218;-61